Aeroporto :
LOGIN :

Iscrizione | Disclaimer

   EN    FR    IT 

 










Sommario :    VFR   VFR Marginale   IFR   IFR Intensivo   IFR Molto Intensivo
Visibilità : 
Base nubi : 
>= 8 km
>= 3000ft
5 / 8 km
1000 / 3000 ft
1500m / 5 km
500 / 1000 ft
800 / 1500m
200 / 500 ft
< 800m
< 200 ft
Simboli :   Temporali  Nebbia  Neve Forte  Precipitazioni Forti  Vento > 20 kt
SIGMETs :   Varie  Temporali  Ghiacco  Turbolenza  Onda orograficha  Ceneri Vulcaniche






- Altitudine del aeroporto : 160 ft
- Codice IATA : LRT


LFRH - Lorient Lann Bihoue

ULTIMO METAR :
  • 032300Z AUTO 26007KT CAVOK 04/02 Q0983 TEMPO 29015G25KT 2000 TSGR SCT025CB

METARs OBSOLETI :
  • 032230Z AUTO 28007KT CAVOK 05/02 Q0983 TEMPO 29015G25KT 2000 TSGR SCT025CB
  • 032200Z AUTO 30014KT 9999 SCT023 SCT049 BKN070 05/03 Q0983 TEMPO 29015G25KT 2000 TSGR SCT025CB
  • 032130Z AUTO 28009KT 9999 SCT029/// SCT076/// BKN150/// ///TCU 05/03 Q0983 TEMPO 29015G25KT 2000 TSGR SCT025CB
  • 032100Z AUTO 29010KT 240V310 9999 SCT042 BKN060 BKN120 05/03 Q0982 TEMPO 29015G25KT 2000 TSGR SCT025CB
  • 032030Z AUTO 28015KT 250V310 9999 FEW035/// SCT047/// BKN058/// ///CB 06/03 Q0982 TEMPO 29015G25KT 2000 TSGR

TAF TAF LFRH
Valido dal 03 a 18 ore il 04 a 18 ore UTC


031700Z 0318/0418 29015G25KT 9999 SCT013 BKN025
TEMPO 0318/0410 29015G25KT 4000 -SHRA SCT025TCU
BECMG 0320/0322 29010KT
PROB30
TEMPO 0322/0410 2000 TSGR SCT025CB
TEMPO 0410/0417 28015G25KT 4000 -SHRA SCT025CB



MetMap, La meteo Aeronautica in un colpo d'occhio ! - Copyright ORBIFLY Dicembre 2007 - Disclaimer

ORBIFLY MET'MAP TEAM :

Programmazione e sviluppo : Alexandra Zaïnal
Concezione : Baudouin d'Aumeries
Aiuto per la programmazione : Marc-Olivier Méhu
Supporto tecnico e logistico : Manuel Goepfert
Aiuto per la traduzione : Arnaldo La Scala

Contatto : metmap@orbifly.com




FONTI E CREDITI :

   NOAA